sensor_id;sensor_type;location;lat;lon;timestamp;pressure;altitude;pressure_sealevel;temperature;humidity
41250;BME280;26984;59.928;30.306;2022-12-07T00:02:07;101111.38;;;-2.12;100.00
41250;BME280;26984;59.928;30.306;2022-12-07T00:04:36;101111.59;;;-2.04;99.35
41250;BME280;26984;59.928;30.306;2022-12-07T00:07:03;101107.41;;;-2.07;99.82
41250;BME280;26984;59.928;30.306;2022-12-07T00:09:31;101118.09;;;-2.08;98.90
41250;BME280;26984;59.928;30.306;2022-12-07T00:11:58;101122.28;;;-2.17;99.49
41250;BME280;26984;59.928;30.306;2022-12-07T00:14:25;101124.94;;;-2.28;99.55
41250;BME280;26984;59.928;30.306;2022-12-07T00:16:53;101124.56;;;-2.35;100.00
41250;BME280;26984;59.928;30.306;2022-12-07T00:19:20;101125.91;;;-2.29;100.00
41250;BME280;26984;59.928;30.306;2022-12-07T00:21:49;101119.19;;;-2.33;100.00
41250;BME280;26984;59.928;30.306;2022-12-07T00:24:16;101118.97;;;-2.30;100.00
41250;BME280;26984;59.928;30.306;2022-12-07T00:26:43;101115.72;;;-2.34;100.00
41250;BME280;26984;59.928;30.306;2022-12-07T00:29:12;101111.41;;;-2.24;100.00
41250;BME280;26984;59.928;30.306;2022-12-07T00:31:40;101109.44;;;-2.10;100.00
41250;BME280;26984;59.928;30.306;2022-12-07T00:34:11;101108.50;;;-2.09;100.00
41250;BME280;26984;59.928;30.306;2022-12-07T00:36:39;101108.50;;;-2.09;100.00
41250;BME280;26984;59.928;30.306;2022-12-07T00:39:07;101111.97;;;-2.09;100.00
41250;BME280;26984;59.928;30.306;2022-12-07T00:41:35;101115.81;;;-2.02;100.00
41250;BME280;26984;59.928;30.306;2022-12-07T00:44:02;101118.31;;;-2.00;100.00
41250;BME280;26984;59.928;30.306;2022-12-07T00:46:30;101121.47;;;-2.06;100.00
41250;BME280;26984;59.928;30.306;2022-12-07T00:48:57;101110.91;;;-2.06;100.00
41250;BME280;26984;59.928;30.306;2022-12-07T00:51:25;101114.13;;;-2.03;100.00
41250;BME280;26984;59.928;30.306;2022-12-07T00:53:52;101120.00;;;-1.99;100.00
41250;BME280;26984;59.928;30.306;2022-12-07T00:56:21;101120.56;;;-1.84;100.00
41250;BME280;26984;59.928;30.306;2022-12-07T00:58:49;101117.19;;;-1.86;100.00
41250;BME280;26984;59.928;30.306;2022-12-07T01:01:17;101128.97;;;-1.90;100.00
41250;BME280;26984;59.928;30.306;2022-12-07T01:03:44;101119.72;;;-1.85;100.00
41250;BME280;26984;59.928;30.306;2022-12-07T01:06:13;101119.47;;;-1.82;100.00
41250;BME280;26984;59.928;30.306;2022-12-07T01:08:41;101120.63;;;-1.75;100.00
41250;BME280;26984;59.928;30.306;2022-12-07T01:11:09;101121.25;;;-1.82;100.00
41250;BME280;26984;59.928;30.306;2022-12-07T01:13:40;101128.69;;;-1.76;100.00
41250;BME280;26984;59.928;30.306;2022-12-07T01:16:08;101125.81;;;-1.73;100.00
41250;BME280;26984;59.928;30.306;2022-12-07T01:18:36;101113.66;;;-1.64;100.00
41250;BME280;26984;59.928;30.306;2022-12-07T01:21:04;101121.56;;;-1.64;100.00
41250;BME280;26984;59.928;30.306;2022-12-07T01:23:32;101121.66;;;-1.55;99.45
41250;BME280;26984;59.928;30.306;2022-12-07T01:26:01;101115.34;;;-1.63;99.20
41250;BME280;26984;59.928;30.306;2022-12-07T01:28:29;101110.50;;;-1.58;99.56
41250;BME280;26984;59.928;30.306;2022-12-07T01:30:59;101122.06;;;-1.59;98.33
41250;BME280;26984;59.928;30.306;2022-12-07T01:33:27;101112.66;;;-1.52;98.06
41250;BME280;26984;59.928;30.306;2022-12-07T01:35:54;101111.44;;;-1.48;97.63
41250;BME280;26984;59.928;30.306;2022-12-07T01:38:21;101117.00;;;-1.62;97.64
41250;BME280;26984;59.928;30.306;2022-12-07T01:40:53;101109.09;;;-1.62;98.72
41250;BME280;26984;59.928;30.306;2022-12-07T01:43:20;101109.78;;;-1.60;97.74
41250;BME280;26984;59.928;30.306;2022-12-07T01:45:49;101116.75;;;-1.59;98.44
41250;BME280;26984;59.928;30.306;2022-12-07T01:48:19;101103.31;;;-1.67;97.97
41250;BME280;26984;59.928;30.306;2022-12-07T01:50:48;101103.06;;;-1.64;97.95
41250;BME280;26984;59.928;30.306;2022-12-07T01:53:17;101112.22;;;-1.69;98.55
41250;BME280;26984;59.928;30.306;2022-12-07T01:55:45;101103.31;;;-1.67;98.86
41250;BME280;26984;59.928;30.306;2022-12-07T01:58:15;101102.72;;;-1.60;99.94
41250;BME280;26984;59.928;30.306;2022-12-07T02:00:43;101098.63;;;-1.64;98.89
41250;BME280;26984;59.928;30.306;2022-12-07T02:03:11;101107.06;;;-1.70;99.83
41250;BME280;26984;59.928;30.306;2022-12-07T02:05:43;101111.25;;;-1.67;100.00
41250;BME280;26984;59.928;30.306;2022-12-07T02:08:10;101115.75;;;-1.47;100.00
41250;BME280;26984;59.928;30.306;2022-12-07T02:10:39;101100.38;;;-1.53;100.00
41250;BME280;26984;59.928;30.306;2022-12-07T02:13:08;101107.91;;;-1.37;100.00
41250;BME280;26984;59.928;30.306;2022-12-07T02:15:44;101098.59;;;-1.32;99.99
41250;BME280;26984;59.928;30.306;2022-12-07T02:18:16;101109.19;;;-1.32;100.00
41250;BME280;26984;59.928;30.306;2022-12-07T02:20:46;101102.38;;;-1.34;100.00
41250;BME280;26984;59.928;30.306;2022-12-07T02:23:29;101101.84;;;-1.28;100.00
41250;BME280;26984;59.928;30.306;2022-12-07T02:26:03;101102.38;;;-1.34;99.68
41250;BME280;26984;59.928;30.306;2022-12-07T02:28:49;101098.75;;;-1.33;100.00
41250;BME280;26984;59.928;30.306;2022-12-07T02:31:18;101100.41;;;-1.32;100.00
41250;BME280;26984;59.928;30.306;2022-12-07T02:33:49;101095.59;;;-1.27;99.39
41250;BME280;26984;59.928;30.306;2022-12-07T02:36:20;101094.38;;;-1.23;99.15
41250;BME280;26984;59.928;30.306;2022-12-07T02:38:50;101098.81;;;-1.24;99.90
41250;BME280;26984;59.928;30.306;2022-12-07T02:41:20;101099.53;;;-1.22;100.00
41250;BME280;26984;59.928;30.306;2022-12-07T02:43:51;101091.66;;;-1.12;100.00
41250;BME280;26984;59.928;30.306;2022-12-07T02:46:20;101094.69;;;-1.16;99.49
41250;BME280;26984;59.928;30.306;2022-12-07T02:48:49;101094.06;;;-1.09;100.00
41250;BME280;26984;59.928;30.306;2022-12-07T02:51:18;101090.56;;;-1.09;99.41
41250;BME280;26984;59.928;30.306;2022-12-07T02:53:45;101095.72;;;-1.08;99.31
41250;BME280;26984;59.928;30.306;2022-12-07T02:56:13;101086.50;;;-1.13;98.02
41250;BME280;26984;59.928;30.306;2022-12-07T02:58:49;101083.28;;;-1.17;98.72
41250;BME280;26984;59.928;30.306;2022-12-07T03:01:21;101080.31;;;-1.03;98.97
41250;BME280;26984;59.928;30.306;2022-12-07T03:03:54;101079.03;;;-1.08;98.18
41250;BME280;26984;59.928;30.306;2022-12-07T03:06:26;101078.84;;;-1.16;98.48
41250;BME280;26984;59.928;30.306;2022-12-07T03:08:57;101081.09;;;-1.12;97.45
41250;BME280;26984;59.928;30.306;2022-12-07T03:11:25;101079.84;;;-1.08;98.62
41250;BME280;26984;59.928;30.306;2022-12-07T03:13:59;101077.94;;;-1.06;98.74
41250;BME280;26984;59.928;30.306;2022-12-07T03:16:31;101085.66;;;-1.14;98.66
41250;BME280;26984;59.928;30.306;2022-12-07T03:19:02;101078.19;;;-1.09;98.59
41250;BME280;26984;59.928;30.306;2022-12-07T03:21:31;101071.66;;;-1.05;99.29
41250;BME280;26984;59.928;30.306;2022-12-07T03:24:02;101068.00;;;-0.92;99.39
41250;BME280;26984;59.928;30.306;2022-12-07T03:26:31;101071.97;;;-0.98;99.11
41250;BME280;26984;59.928;30.306;2022-12-07T03:28:59;101075.63;;;-0.89;98.18
41250;BME280;26984;59.928;30.306;2022-12-07T03:31:28;101078.50;;;-1.02;98.58
41250;BME280;26984;59.928;30.306;2022-12-07T03:34:01;101076.56;;;-1.00;98.97
41250;BME280;26984;59.928;30.306;2022-12-07T03:36:30;101061.41;;;-0.98;99.27
41250;BME280;26984;59.928;30.306;2022-12-07T03:39:01;101074.47;;;-0.97;99.05
41250;BME280;26984;59.928;30.306;2022-12-07T03:41:31;101071.16;;;-0.99;99.26
41250;BME280;26984;59.928;30.306;2022-12-07T03:43:59;101077.28;;;-0.98;99.57
41250;BME280;26984;59.928;30.306;2022-12-07T03:46:28;101066.75;;;-0.88;99.48
41250;BME280;26984;59.928;30.306;2022-12-07T03:49:00;101068.25;;;-0.95;99.79
41250;BME280;26984;59.928;30.306;2022-12-07T03:51:33;101055.97;;;-0.97;100.00
41250;BME280;26984;59.928;30.306;2022-12-07T03:54:05;101053.31;;;-0.97;100.00
41250;BME280;26984;59.928;30.306;2022-12-07T03:56:34;101053.78;;;-0.91;100.00
41250;BME280;26984;59.928;30.306;2022-12-07T03:59:02;101047.09;;;-0.95;100.00
41250;BME280;26984;59.928;30.306;2022-12-07T04:01:29;101052.38;;;-0.95;99.51
41250;BME280;26984;59.928;30.306;2022-12-07T04:03:59;101044.31;;;-0.94;99.74
41250;BME280;26984;59.928;30.306;2022-12-07T04:06:27;101047.94;;;-1.16;99.98
41250;BME280;26984;59.928;30.306;2022-12-07T04:08:54;101039.88;;;-1.14;100.00
41250;BME280;26984;59.928;30.306;2022-12-07T04:11:21;101043.63;;;-1.17;100.00
41250;BME280;26984;59.928;30.306;2022-12-07T04:13:49;101047.22;;;-1.18;100.00
41250;BME280;26984;59.928;30.306;2022-12-07T04:16:34;101054.56;;;-1.22;100.00
41250;BME280;26984;59.928;30.306;2022-12-07T04:19:02;101044.31;;;-1.15;100.00
41250;BME280;26984;59.928;30.306;2022-12-07T04:21:30;101048.63;;;-1.14;100.00
41250;BME280;26984;59.928;30.306;2022-12-07T04:23:57;101054.22;;;-1.17;100.00
41250;BME280;26984;59.928;30.306;2022-12-07T04:26:24;101039.44;;;-1.19;100.00
41250;BME280;26984;59.928;30.306;2022-12-07T04:28:52;101039.19;;;-1.16;100.00
41250;BME280;26984;59.928;30.306;2022-12-07T04:31:19;101033.88;;;-0.95;100.00
41250;BME280;26984;59.928;30.306;2022-12-07T04:33:46;101035.47;;;-1.04;100.00
41250;BME280;26984;59.928;30.306;2022-12-07T04:36:15;101038.00;;;-1.03;100.00
41250;BME280;26984;59.928;30.306;2022-12-07T04:38:43;101031.16;;;-1.05;100.00
41250;BME280;26984;59.928;30.306;2022-12-07T04:41:10;101025.47;;;-1.01;100.00
41250;BME280;26984;59.928;30.306;2022-12-07T04:43:37;101028.44;;;-0.94;100.00
41250;BME280;26984;59.928;30.306;2022-12-07T04:46:05;101025.38;;;-0.89;100.00
41250;BME280;26984;59.928;30.306;2022-12-07T04:48:32;101028.34;;;-0.83;100.00
41250;BME280;26984;59.928;30.306;2022-12-07T04:50:59;101029.47;;;-0.85;99.08
41250;BME280;26984;59.928;30.306;2022-12-07T04:53:28;101032.47;;;-1.00;99.92
41250;BME280;26984;59.928;30.306;2022-12-07T04:55:55;101036.63;;;-0.97;99.66
41250;BME280;26984;59.928;30.306;2022-12-07T04:58:23;101029.00;;;-0.90;99.30
41250;BME280;26984;59.928;30.306;2022-12-07T05:00:53;101032.97;;;-1.06;99.40
41250;BME280;26984;59.928;30.306;2022-12-07T05:03:20;101036.13;;;-1.12;99.87
41250;BME280;26984;59.928;30.306;2022-12-07T05:05:47;101043.63;;;-1.17;100.00
41250;BME280;26984;59.928;30.306;2022-12-07T05:08:15;101039.81;;;-1.03;99.38
41250;BME280;26984;59.928;30.306;2022-12-07T05:10:43;101039.50;;;-1.10;99.92
41250;BME280;26984;59.928;30.306;2022-12-07T05:13:11;101049.44;;;-1.23;100.00
41250;BME280;26984;59.928;30.306;2022-12-07T05:15:38;101053.75;;;-1.22;100.00
41250;BME280;26984;59.928;30.306;2022-12-07T05:18:05;101046.38;;;-1.18;100.00
41250;BME280;26984;59.928;30.306;2022-12-07T05:20:33;101041.25;;;-1.20;100.00
41250;BME280;26984;59.928;30.306;2022-12-07T05:23:00;101038.06;;;-1.14;100.00
41250;BME280;26984;59.928;30.306;2022-12-07T05:25:28;101034.53;;;-1.03;100.00
41250;BME280;26984;59.928;30.306;2022-12-07T05:27:56;101044.97;;;-1.02;100.00
41250;BME280;26984;59.928;30.306;2022-12-07T05:30:24;101041.41;;;-1.12;100.00
41250;BME280;26984;59.928;30.306;2022-12-07T05:32:52;101038.53;;;-1.09;100.00
41250;BME280;26984;59.928;30.306;2022-12-07T05:35:19;101042.97;;;-1.09;100.00
41250;BME280;26984;59.928;30.306;2022-12-07T05:37:47;101041.59;;;-1.04;100.00
41250;BME280;26984;59.928;30.306;2022-12-07T05:40:14;101039.53;;;-1.00;100.00
41250;BME280;26984;59.928;30.306;2022-12-07T05:42:42;101044.31;;;-0.94;100.00
41250;BME280;26984;59.928;30.306;2022-12-07T05:45:10;101038.03;;;-0.93;100.00
41250;BME280;26984;59.928;30.306;2022-12-07T05:47:38;101050.69;;;-0.97;100.00
41250;BME280;26984;59.928;30.306;2022-12-07T05:50:06;101044.97;;;-1.02;100.00
41250;BME280;26984;59.928;30.306;2022-12-07T05:52:33;101039.34;;;-1.08;100.00
41250;BME280;26984;59.928;30.306;2022-12-07T05:55:00;101041.28;;;-1.10;100.00
41250;BME280;26984;59.928;30.306;2022-12-07T05:57:28;101053.91;;;-1.14;100.00
41250;BME280;26984;59.928;30.306;2022-12-07T05:59:55;101044.78;;;-1.10;100.00
41250;BME280;26984;59.928;30.306;2022-12-07T06:02:23;101037.44;;;-1.06;100.00
41250;BME280;26984;59.928;30.306;2022-12-07T06:04:50;101037.81;;;-1.11;100.00
41250;BME280;26984;59.928;30.306;2022-12-07T06:07:17;101042.84;;;-1.08;99.70
41250;BME280;26984;59.928;30.306;2022-12-07T06:09:45;101044.31;;;-1.15;100.00
41250;BME280;26984;59.928;30.306;2022-12-07T06:12:12;101041.47;;;-1.02;100.00
41250;BME280;26984;59.928;30.306;2022-12-07T06:14:57;101043.41;;;-1.04;100.00
41250;BME280;26984;59.928;30.306;2022-12-07T06:17:26;101033.16;;;-0.98;99.77
41250;BME280;26984;59.928;30.306;2022-12-07T06:19:53;101032.22;;;-0.87;98.92
41250;BME280;26984;59.928;30.306;2022-12-07T06:22:21;101029.16;;;-0.82;99.20
41250;BME280;26984;59.928;30.306;2022-12-07T06:24:48;101024.84;;;-0.83;98.48
41250;BME280;26984;59.928;30.306;2022-12-07T06:27:15;101025.75;;;-0.73;98.03
41250;BME280;26984;59.928;30.306;2022-12-07T06:29:43;101038.00;;;-0.72;98.26
41250;BME280;26984;59.928;30.306;2022-12-07T06:32:10;101031.44;;;-0.68;97.46
41250;BME280;26984;59.928;30.306;2022-12-07T06:34:39;101027.31;;;-0.61;96.70
41250;BME280;26984;59.928;30.306;2022-12-07T06:37:07;101022.81;;;-0.70;96.68
41250;BME280;26984;59.928;30.306;2022-12-07T06:39:34;101032.28;;;-0.77;96.97
41250;BME280;26984;59.928;30.306;2022-12-07T06:42:01;101029.22;;;-0.73;97.52
41250;BME280;26984;59.928;30.306;2022-12-07T06:44:29;101035.09;;;-0.69;97.15
41250;BME280;26984;59.928;30.306;2022-12-07T06:46:56;101031.44;;;-0.68;96.29
41250;BME280;26984;59.928;30.306;2022-12-07T06:49:23;101030.63;;;-0.68;95.79
41250;BME280;26984;59.928;30.306;2022-12-07T06:51:52;101034.25;;;-0.69;96.23
41250;BME280;26984;59.928;30.306;2022-12-07T06:54:20;101033.25;;;-0.68;96.07
41250;BME280;26984;59.928;30.306;2022-12-07T06:56:47;101035.22;;;-0.70;96.33
41250;BME280;26984;59.928;30.306;2022-12-07T06:59:14;101035.78;;;-0.67;96.92
41250;BME280;26984;59.928;30.306;2022-12-07T07:01:42;101034.09;;;-0.68;96.65
41250;BME280;26984;59.928;30.306;2022-12-07T07:04:09;101039.59;;;-0.60;94.47
41250;BME280;26984;59.928;30.306;2022-12-07T07:06:36;101040.22;;;-0.77;94.29
41250;BME280;26984;59.928;30.306;2022-12-07T07:09:05;101045.25;;;-0.74;94.97
41250;BME280;26984;59.928;30.306;2022-12-07T07:11:32;101043.47;;;-0.64;95.71
41250;BME280;26984;59.928;30.306;2022-12-07T07:14:00;101045.25;;;-0.64;93.83
41250;BME280;26984;59.928;30.306;2022-12-07T07:16:28;101046.50;;;-0.68;94.56
41250;BME280;26984;59.928;30.306;2022-12-07T07:18:56;101042.22;;;-0.60;94.37
41250;BME280;26984;59.928;30.306;2022-12-07T07:21:24;101043.47;;;-0.54;93.35
41250;BME280;26984;59.928;30.306;2022-12-07T07:23:51;101034.44;;;-0.52;93.70
41250;BME280;26984;59.928;30.306;2022-12-07T07:26:20;101036.69;;;-0.47;91.94
41250;BME280;26984;59.928;30.306;2022-12-07T07:28:47;101033.88;;;-0.55;92.10
41250;BME280;26984;59.928;30.306;2022-12-07T07:31:15;101039.59;;;-0.60;92.60
41250;BME280;26984;59.928;30.306;2022-12-07T07:33:42;101039.88;;;-0.53;92.21
41250;BME280;26984;59.928;30.306;2022-12-07T07:36:09;101037.34;;;-0.55;92.50
41250;BME280;26984;59.928;30.306;2022-12-07T07:38:37;101034.88;;;-0.46;92.58
41250;BME280;26984;59.928;30.306;2022-12-07T07:41:04;101041.72;;;-0.44;93.28
41250;BME280;26984;59.928;30.306;2022-12-07T07:43:33;101037.84;;;-0.30;93.09
41250;BME280;26984;59.928;30.306;2022-12-07T07:46:01;101034.50;;;-0.22;91.28
41250;BME280;26984;59.928;30.306;2022-12-07T07:48:28;101030.88;;;-0.21;89.49
41250;BME280;26984;59.928;30.306;2022-12-07T07:50:55;101044.53;;;-0.26;90.40
41250;BME280;26984;59.928;30.306;2022-12-07T07:53:23;101042.16;;;-0.39;91.87
41250;BME280;26984;59.928;30.306;2022-12-07T07:55:51;101038.13;;;-0.33;91.15
41250;BME280;26984;59.928;30.306;2022-12-07T07:58:19;101042.16;;;-0.29;91.46
41250;BME280;26984;59.928;30.306;2022-12-07T08:00:48;101025.31;;;-0.28;91.99
41250;BME280;26984;59.928;30.306;2022-12-07T08:03:15;101038.00;;;-0.22;89.75
41250;BME280;26984;59.928;30.306;2022-12-07T08:05:43;101029.22;;;-0.22;90.34
41250;BME280;26984;59.928;30.306;2022-12-07T08:08:10;101033.84;;;-0.25;91.27
41250;BME280;26984;59.928;30.306;2022-12-07T08:10:38;101041.22;;;-0.18;89.98
41250;BME280;26984;59.928;30.306;2022-12-07T08:13:05;101036.06;;;-0.20;90.42
41250;BME280;26984;59.928;30.306;2022-12-07T08:15:39;101030.63;;;-0.18;90.84
41250;BME280;26984;59.928;30.306;2022-12-07T08:18:08;101038.00;;;-0.22;91.12
41250;BME280;26984;59.928;30.306;2022-12-07T08:20:36;101039.56;;;-0.10;90.75
41250;BME280;26984;59.928;30.306;2022-12-07T08:23:04;101029.50;;;-0.16;91.35
41250;BME280;26984;59.928;30.306;2022-12-07T08:25:31;101026.59;;;-0.13;92.43
41250;BME280;26984;59.928;30.306;2022-12-07T08:27:59;101031.19;;;-0.15;91.64
41250;BME280;26984;59.928;30.306;2022-12-07T08:30:27;101018.09;;;-0.16;91.83
41250;BME280;26984;59.928;30.306;2022-12-07T08:32:55;101028.66;;;-0.26;92.68
41250;BME280;26984;59.928;30.306;2022-12-07T08:35:24;101026.28;;;-0.29;93.57
41250;BME280;26984;59.928;30.306;2022-12-07T08:37:52;101019.44;;;-0.41;94.71
41250;BME280;26984;59.928;30.306;2022-12-07T08:40:19;101024.19;;;-0.35;95.15
41250;BME280;26984;59.928;30.306;2022-12-07T08:42:50;101015.69;;;-0.29;95.33
41250;BME280;26984;59.928;30.306;2022-12-07T08:45:18;101023.13;;;-0.13;95.04
41250;BME280;26984;59.928;30.306;2022-12-07T08:47:47;101017.25;;;-0.17;95.00
41250;BME280;26984;59.928;30.306;2022-12-07T08:50:16;101013.47;;;-0.14;94.97
41250;BME280;26984;59.928;30.306;2022-12-07T08:52:45;101011.38;;;-0.11;95.07
41250;BME280;26984;59.928;30.306;2022-12-07T08:55:15;101007.50;;;-0.07;94.43
41250;BME280;26984;59.928;30.306;2022-12-07T08:57:42;101004.72;;;0.05;94.56
41250;BME280;26984;59.928;30.306;2022-12-07T09:00:10;101002.06;;;0.05;94.05
41250;BME280;26984;59.928;30.306;2022-12-07T09:02:38;101002.91;;;0.05;94.60
41250;BME280;26984;59.928;30.306;2022-12-07T09:05:06;101004.19;;;0.11;93.99
41250;BME280;26984;59.928;30.306;2022-12-07T09:07:33;101007.94;;;0.08;93.88
41250;BME280;26984;59.928;30.306;2022-12-07T09:10:03;100994.69;;;0.08;93.97
41250;BME280;26984;59.928;30.306;2022-12-07T09:12:30;100996.34;;;-0.01;94.57
41250;BME280;26984;59.928;30.306;2022-12-07T09:14:58;100996.06;;;0.03;95.38
41250;BME280;26984;59.928;30.306;2022-12-07T09:17:26;100995.94;;;0.04;95.37
41250;BME280;26984;59.928;30.306;2022-12-07T09:19:54;100990.50;;;0.15;94.85
41250;BME280;26984;59.928;30.306;2022-12-07T09:22:21;100996.63;;;0.16;93.92
41250;BME280;26984;59.928;30.306;2022-12-07T09:24:48;100997.06;;;0.11;94.87
41250;BME280;26984;59.928;30.306;2022-12-07T09:27:17;100991.75;;;0.21;94.01
41250;BME280;26984;59.928;30.306;2022-12-07T09:29:45;101000.94;;;0.17;93.85
41250;BME280;26984;59.928;30.306;2022-12-07T09:32:12;100986.44;;;0.21;93.99
41250;BME280;26984;59.928;30.306;2022-12-07T09:34:40;100994.53;;;0.19;93.46
41250;BME280;26984;59.928;30.306;2022-12-07T09:37:07;100986.03;;;0.26;93.92
41250;BME280;26984;59.928;30.306;2022-12-07T09:39:37;100993.97;;;0.35;94.42
41250;BME280;26984;59.928;30.306;2022-12-07T09:42:04;100988.78;;;0.53;93.55
41250;BME280;26984;59.928;30.306;2022-12-07T09:44:34;100986.84;;;0.55;92.96
41250;BME280;26984;59.928;30.306;2022-12-07T09:47:02;100984.03;;;0.57;92.17
41250;BME280;26984;59.928;30.306;2022-12-07T09:49:30;100982.78;;;0.51;90.52
41250;BME280;26984;59.928;30.306;2022-12-07T09:52:02;100978.44;;;0.60;89.49
41250;BME280;26984;59.928;30.306;2022-12-07T09:54:30;100980.97;;;0.52;89.03
41250;BME280;26984;59.928;30.306;2022-12-07T09:56:58;100969.00;;;0.47;89.56
41250;BME280;26984;59.928;30.306;2022-12-07T09:59:26;100964.22;;;0.61;87.93
41250;BME280;26984;59.928;30.306;2022-12-07T10:01:55;100968.56;;;0.52;88.39
41250;BME280;26984;59.928;30.306;2022-12-07T10:04:23;100961.44;;;0.53;88.90
41250;BME280;26984;59.928;30.306;2022-12-07T10:06:51;100958.66;;;0.44;88.24
41250;BME280;26984;59.928;30.306;2022-12-07T10:09:19;100957.97;;;0.42;88.97
41250;BME280;26984;59.928;30.306;2022-12-07T10:12:00;100956.72;;;0.46;88.44
41250;BME280;26984;59.928;30.306;2022-12-07T10:14:28;100955.47;;;0.41;88.31
41250;BME280;26984;59.928;30.306;2022-12-07T10:16:58;100954.63;;;0.31;88.22
41250;BME280;26984;59.928;30.306;2022-12-07T10:19:26;100949.06;;;0.34;88.65
41250;BME280;26984;59.928;30.306;2022-12-07T10:22:01;100957.44;;;0.29;89.68
41250;BME280;26984;59.928;30.306;2022-12-07T10:24:29;100944.47;;;0.16;89.81
41250;BME280;26984;59.928;30.306;2022-12-07T10:26:56;100952.16;;;0.19;89.88
41250;BME280;26984;59.928;30.306;2022-12-07T10:29:24;100945.91;;;0.11;90.01
41250;BME280;26984;59.928;30.306;2022-12-07T10:31:55;100955.06;;;0.07;91.69
41250;BME280;26984;59.928;30.306;2022-12-07T10:34:26;100950.75;;;0.15;91.70
41250;BME280;26984;59.928;30.306;2022-12-07T10:37:07;100943.75;;;0.24;91.70
41250;BME280;26984;59.928;30.306;2022-12-07T10:39:40;100939.44;;;0.33;92.00
41250;BME280;26984;59.928;30.306;2022-12-07T10:42:15;100942.91;;;0.43;91.90
41250;BME280;26984;59.928;30.306;2022-12-07T10:44:42;100944.69;;;0.52;89.97
41250;BME280;26984;59.928;30.306;2022-12-07T10:47:21;100947.25;;;0.34;90.43
41250;BME280;26984;59.928;30.306;2022-12-07T10:49:59;100941.66;;;0.28;89.70
41250;BME280;26984;59.928;30.306;2022-12-07T10:52:34;100934.88;;;0.15;88.63
41250;BME280;26984;59.928;30.306;2022-12-07T10:55:08;100935.69;;;0.06;89.36
41250;BME280;26984;59.928;30.306;2022-12-07T10:57:42;100924.69;;;0.11;88.24
41250;BME280;26984;59.928;30.306;2022-12-07T11:00:15;100928.19;;;0.02;88.93
41250;BME280;26984;59.928;30.306;2022-12-07T11:05:35;100916.75;;;0.01;87.13
41250;BME280;26984;59.928;30.306;2022-12-07T11:08:09;100917.31;;;-0.05;88.10
41250;BME280;26984;59.928;30.306;2022-12-07T11:10:41;100923.16;;;-0.11;88.74
41250;BME280;26984;59.928;30.306;2022-12-07T11:13:19;100913.28;;;-0.09;88.41
41250;BME280;26984;59.928;30.306;2022-12-07T11:16:02;100916.75;;;0.01;87.76
41250;BME280;26984;59.928;30.306;2022-12-07T11:18:32;100918.03;;;-0.03;87.27
41250;BME280;26984;59.928;30.306;2022-12-07T11:21:06;100915.34;;;0.07;89.02
41250;BME280;26984;59.928;30.306;2022-12-07T11:23:39;100913.94;;;0.12;87.54
41250;BME280;26984;59.928;30.306;2022-12-07T11:26:11;100910.47;;;0.21;86.31
41250;BME280;26984;59.928;30.306;2022-12-07T11:28:45;100910.88;;;0.17;86.58
41250;BME280;26984;59.928;30.306;2022-12-07T11:31:21;100906.00;;;0.22;85.38
41250;BME280;26984;59.928;30.306;2022-12-07T11:33:50;100906.84;;;0.13;85.71
41250;BME280;26984;59.928;30.306;2022-12-07T11:36:29;100904.06;;;0.05;85.86
41250;BME280;26984;59.928;30.306;2022-12-07T11:38:59;100904.63;;;-0.02;84.24
41250;BME280;26984;59.928;30.306;2022-12-07T11:41:28;100906.16;;;-0.18;84.84
41250;BME280;26984;59.928;30.306;2022-12-07T11:43:58;100900.31;;;-0.22;84.63
41250;BME280;26984;59.928;30.306;2022-12-07T11:46:29;100899.88;;;-0.37;85.73
41250;BME280;26984;59.928;30.306;2022-12-07T11:49:04;100900.72;;;-0.36;84.95
41250;BME280;26984;59.928;30.306;2022-12-07T11:51:38;100896.41;;;-0.37;86.78
41250;BME280;26984;59.928;30.306;2022-12-07T11:54:11;100897.13;;;-0.35;85.02
41250;BME280;26984;59.928;30.306;2022-12-07T11:56:40;100889.56;;;-0.40;85.45
41250;BME280;26984;59.928;30.306;2022-12-07T11:59:09;100899.75;;;-0.55;85.21
41250;BME280;26984;59.928;30.306;2022-12-07T12:01:44;100885.38;;;-0.62;85.99
41250;BME280;26984;59.928;30.306;2022-12-07T12:04:22;100897.63;;;-0.61;86.53
41250;BME280;26984;59.928;30.306;2022-12-07T12:06:51;100887.06;;;-0.51;87.08
41250;BME280;26984;59.928;30.306;2022-12-07T12:09:21;100887.34;;;-0.64;86.24
41250;BME280;26984;59.928;30.306;2022-12-07T12:14:51;100879.81;;;-0.59;87.37
41250;BME280;26984;59.928;30.306;2022-12-07T12:20:01;100879.25;;;-0.43;88.03
41250;BME280;26984;59.928;30.306;2022-12-07T12:22:34;100884.84;;;-0.46;85.99
41250;BME280;26984;59.928;30.306;2022-12-07T12:25:04;100882.59;;;-0.51;85.91
41250;BME280;26984;59.928;30.306;2022-12-07T12:27:33;100880.25;;;-0.63;86.90
41250;BME280;26984;59.928;30.306;2022-12-07T12:30:02;100874.81;;;-0.62;86.48
41250;BME280;26984;59.928;30.306;2022-12-07T12:32:33;100883.13;;;-0.76;87.56
41250;BME280;26984;59.928;30.306;2022-12-07T12:37:47;100876.88;;;-0.75;88.71
41250;BME280;26984;59.928;30.306;2022-12-07T12:43:01;100873.78;;;-1.00;91.27
41250;BME280;26984;59.928;30.306;2022-12-07T12:45:28;100865.44;;;-0.95;90.33
41250;BME280;26984;59.928;30.306;2022-12-07T12:47:57;100862.09;;;-0.87;91.58
41250;BME280;26984;59.928;30.306;2022-12-07T12:50:25;100858.91;;;-0.81;90.24
41250;BME280;26984;59.928;30.306;2022-12-07T12:55:53;100860.44;;;-0.88;88.04
41250;BME280;26984;59.928;30.306;2022-12-07T12:58:31;100859.69;;;-1.00;88.75
41250;BME280;26984;59.928;30.306;2022-12-07T13:03:51;100842.72;;;-0.98;88.73
41250;BME280;26984;59.928;30.306;2022-12-07T13:06:20;100839.09;;;-1.06;89.50
41250;BME280;26984;59.928;30.306;2022-12-07T13:08:59;100845.25;;;-0.96;89.95